sensor_id;sensor_type;location;lat;lon;timestamp;P1;durP1;ratioP1;P2;durP2;ratioP2
78927;SDS011;68322;22.726;113.540;2023-05-15T00:01:48;53.65;;;33.22;;
78927;SDS011;68322;22.726;113.540;2023-05-15T00:04:14;49.50;;;31.02;;
78927;SDS011;68322;22.726;113.540;2023-05-15T00:06:41;56.22;;;34.53;;
78927;SDS011;68322;22.726;113.540;2023-05-15T00:09:08;55.58;;;35.55;;
78927;SDS011;68322;22.726;113.540;2023-05-15T00:11:35;59.88;;;33.97;;
78927;SDS011;68322;22.726;113.540;2023-05-15T00:14:01;59.05;;;33.67;;
78927;SDS011;68322;22.726;113.540;2023-05-15T00:16:28;56.13;;;36.08;;
78927;SDS011;68322;22.726;113.540;2023-05-15T00:18:55;60.08;;;36.90;;
78927;SDS011;68322;22.726;113.540;2023-05-15T00:21:21;55.40;;;35.38;;
78927;SDS011;68322;22.726;113.540;2023-05-15T00:23:48;59.90;;;34.80;;
78927;SDS011;68322;22.726;113.540;2023-05-15T00:26:18;59.88;;;36.55;;
78927;SDS011;68322;22.726;113.540;2023-05-15T00:28:45;58.42;;;36.70;;
78927;SDS011;68322;22.726;113.540;2023-05-15T00:31:11;54.53;;;34.38;;
78927;SDS011;68322;22.726;113.540;2023-05-15T00:33:39;65.15;;;36.85;;
78927;SDS011;68322;22.726;113.540;2023-05-15T00:36:05;65.20;;;37.75;;
78927;SDS011;68322;22.726;113.540;2023-05-15T00:38:32;74.80;;;38.25;;
78927;SDS011;68322;22.726;113.540;2023-05-15T00:41:00;63.92;;;36.50;;
78927;SDS011;68322;22.726;113.540;2023-05-15T00:43:27;65.68;;;38.90;;
78927;SDS011;68322;22.726;113.540;2023-05-15T00:45:54;60.47;;;34.92;;
78927;SDS011;68322;22.726;113.540;2023-05-15T00:48:21;67.57;;;38.28;;
78927;SDS011;68322;22.726;113.540;2023-05-15T00:50:49;60.70;;;35.78;;
78927;SDS011;68322;22.726;113.540;2023-05-15T00:53:16;65.28;;;36.72;;
78927;SDS011;68322;22.726;113.540;2023-05-15T00:55:46;60.58;;;37.38;;
78927;SDS011;68322;22.726;113.540;2023-05-15T00:58:16;66.28;;;38.90;;
78927;SDS011;68322;22.726;113.540;2023-05-15T01:00:43;52.95;;;33.85;;
78927;SDS011;68322;22.726;113.540;2023-05-15T01:03:10;73.97;;;42.28;;
78927;SDS011;68322;22.726;113.540;2023-05-15T01:05:37;70.22;;;37.95;;
78927;SDS011;68322;22.726;113.540;2023-05-15T01:10:33;66.75;;;37.17;;
78927;SDS011;68322;22.726;113.540;2023-05-15T01:13:01;65.57;;;40.10;;
78927;SDS011;68322;22.726;113.540;2023-05-15T01:15:28;68.60;;;38.72;;
78927;SDS011;68322;22.726;113.540;2023-05-15T01:17:55;66.63;;;42.50;;
78927;SDS011;68322;22.726;113.540;2023-05-15T01:20:21;69.03;;;40.25;;
78927;SDS011;68322;22.726;113.540;2023-05-15T01:27:49;63.78;;;38.63;;
78927;SDS011;68322;22.726;113.540;2023-05-15T01:30:28;72.00;;;41.47;;
78927;SDS011;68322;22.726;113.540;2023-05-15T01:33:08;73.57;;;43.13;;
78927;SDS011;68322;22.726;113.540;2023-05-15T01:38:11;70.18;;;39.70;;
78927;SDS011;68322;22.726;113.540;2023-05-15T01:40:40;69.40;;;40.30;;
78927;SDS011;68322;22.726;113.540;2023-05-15T01:43:07;79.03;;;42.85;;
78927;SDS011;68322;22.726;113.540;2023-05-15T01:45:35;72.35;;;40.10;;
78927;SDS011;68322;22.726;113.540;2023-05-15T01:48:04;68.90;;;41.70;;
78927;SDS011;68322;22.726;113.540;2023-05-15T01:50:32;69.55;;;39.78;;
78927;SDS011;68322;22.726;113.540;2023-05-15T01:53:00;74.28;;;45.03;;
78927;SDS011;68322;22.726;113.540;2023-05-15T01:55:28;59.65;;;36.10;;
78927;SDS011;68322;22.726;113.540;2023-05-15T01:57:59;65.65;;;39.13;;
78927;SDS011;68322;22.726;113.540;2023-05-15T02:00:27;74.60;;;38.97;;
78927;SDS011;68322;22.726;113.540;2023-05-15T02:02:54;62.05;;;35.25;;
78927;SDS011;68322;22.726;113.540;2023-05-15T02:05:22;66.45;;;35.63;;
78927;SDS011;68322;22.726;113.540;2023-05-15T02:07:51;103.05;;;45.58;;
78927;SDS011;68322;22.726;113.540;2023-05-15T02:10:18;61.38;;;35.33;;
78927;SDS011;68322;22.726;113.540;2023-05-15T02:12:45;61.22;;;35.85;;
78927;SDS011;68322;22.726;113.540;2023-05-15T02:15:13;67.47;;;34.78;;
78927;SDS011;68322;22.726;113.540;2023-05-15T02:17:42;66.88;;;37.20;;
78927;SDS011;68322;22.726;113.540;2023-05-15T02:20:09;64.05;;;39.80;;
78927;SDS011;68322;22.726;113.540;2023-05-15T02:22:36;83.82;;;40.53;;
78927;SDS011;68322;22.726;113.540;2023-05-15T02:25:03;86.93;;;42.17;;
78927;SDS011;68322;22.726;113.540;2023-05-15T02:27:37;86.18;;;42.75;;
78927;SDS011;68322;22.726;113.540;2023-05-15T02:38:14;74.78;;;44.13;;
78927;SDS011;68322;22.726;113.540;2023-05-15T02:40:42;71.78;;;40.22;;
78927;SDS011;68322;22.726;113.540;2023-05-15T02:43:09;64.78;;;37.97;;
78927;SDS011;68322;22.726;113.540;2023-05-15T02:45:36;71.15;;;40.55;;
78927;SDS011;68322;22.726;113.540;2023-05-15T02:48:05;69.05;;;40.50;;
78927;SDS011;68322;22.726;113.540;2023-05-15T02:50:33;80.53;;;39.95;;
78927;SDS011;68322;22.726;113.540;2023-05-15T02:53:00;74.57;;;36.45;;
78927;SDS011;68322;22.726;113.540;2023-05-15T02:55:27;66.25;;;35.05;;
78927;SDS011;68322;22.726;113.540;2023-05-15T02:57:54;51.45;;;31.17;;
78927;SDS011;68322;22.726;113.540;2023-05-15T03:00:21;54.78;;;33.35;;
78927;SDS011;68322;22.726;113.540;2023-05-15T03:02:48;53.97;;;31.33;;
78927;SDS011;68322;22.726;113.540;2023-05-15T03:05:15;55.13;;;34.10;;
78927;SDS011;68322;22.726;113.540;2023-05-15T03:07:42;58.83;;;35.92;;
78927;SDS011;68322;22.726;113.540;2023-05-15T03:10:08;60.13;;;37.10;;
78927;SDS011;68322;22.726;113.540;2023-05-15T03:12:35;66.03;;;39.20;;
78927;SDS011;68322;22.726;113.540;2023-05-15T03:15:02;65.40;;;38.55;;
78927;SDS011;68322;22.726;113.540;2023-05-15T03:17:29;67.63;;;40.20;;
78927;SDS011;68322;22.726;113.540;2023-05-15T03:19:55;67.70;;;40.08;;
78927;SDS011;68322;22.726;113.540;2023-05-15T03:22:22;60.30;;;34.88;;
78927;SDS011;68322;22.726;113.540;2023-05-15T03:24:49;58.75;;;34.17;;
78927;SDS011;68322;22.726;113.540;2023-05-15T03:27:16;60.15;;;35.53;;
78927;SDS011;68322;22.726;113.540;2023-05-15T03:29:42;69.00;;;41.70;;
78927;SDS011;68322;22.726;113.540;2023-05-15T03:32:09;66.00;;;38.65;;
78927;SDS011;68322;22.726;113.540;2023-05-15T03:34:36;78.13;;;43.05;;
78927;SDS011;68322;22.726;113.540;2023-05-15T03:37:03;77.95;;;44.95;;
78927;SDS011;68322;22.726;113.540;2023-05-15T03:39:30;78.68;;;43.78;;
78927;SDS011;68322;22.726;113.540;2023-05-15T03:41:57;77.90;;;42.78;;
78927;SDS011;68322;22.726;113.540;2023-05-15T03:44:24;69.07;;;41.10;;
78927;SDS011;68322;22.726;113.540;2023-05-15T03:46:51;69.30;;;40.00;;
78927;SDS011;68322;22.726;113.540;2023-05-15T03:49:17;68.05;;;38.63;;
78927;SDS011;68322;22.726;113.540;2023-05-15T03:51:44;66.03;;;38.38;;
78927;SDS011;68322;22.726;113.540;2023-05-15T03:54:11;66.95;;;38.38;;
78927;SDS011;68322;22.726;113.540;2023-05-15T03:56:38;69.22;;;39.08;;
78927;SDS011;68322;22.726;113.540;2023-05-15T03:59:04;73.38;;;40.83;;
78927;SDS011;68322;22.726;113.540;2023-05-15T04:01:31;71.93;;;44.00;;
78927;SDS011;68322;22.726;113.540;2023-05-15T04:03:58;69.10;;;40.88;;
78927;SDS011;68322;22.726;113.540;2023-05-15T04:06:25;68.20;;;39.47;;
78927;SDS011;68322;22.726;113.540;2023-05-15T04:08:51;70.88;;;40.65;;
78927;SDS011;68322;22.726;113.540;2023-05-15T04:11:18;73.88;;;42.55;;
78927;SDS011;68322;22.726;113.540;2023-05-15T04:13:47;87.68;;;42.25;;
78927;SDS011;68322;22.726;113.540;2023-05-15T04:16:14;75.65;;;42.65;;
78927;SDS011;68322;22.726;113.540;2023-05-15T04:18:40;75.18;;;40.08;;
78927;SDS011;68322;22.726;113.540;2023-05-15T04:21:07;75.35;;;42.92;;
78927;SDS011;68322;22.726;113.540;2023-05-15T04:23:35;71.82;;;41.55;;
78927;SDS011;68322;22.726;113.540;2023-05-15T04:26:02;67.00;;;38.55;;
78927;SDS011;68322;22.726;113.540;2023-05-15T04:28:30;73.28;;;42.38;;
78927;SDS011;68322;22.726;113.540;2023-05-15T04:30:58;72.88;;;43.22;;
78927;SDS011;68322;22.726;113.540;2023-05-15T04:33:25;70.85;;;42.05;;
78927;SDS011;68322;22.726;113.540;2023-05-15T04:35:52;68.88;;;40.25;;
78927;SDS011;68322;22.726;113.540;2023-05-15T04:38:19;59.47;;;36.28;;
78927;SDS011;68322;22.726;113.540;2023-05-15T04:40:47;64.80;;;39.22;;
78927;SDS011;68322;22.726;113.540;2023-05-15T04:43:13;62.67;;;37.10;;
78927;SDS011;68322;22.726;113.540;2023-05-15T04:45:40;60.78;;;36.42;;
78927;SDS011;68322;22.726;113.540;2023-05-15T04:48:07;51.60;;;32.97;;
78927;SDS011;68322;22.726;113.540;2023-05-15T04:50:34;42.17;;;26.63;;
78927;SDS011;68322;22.726;113.540;2023-05-15T04:53:02;48.78;;;28.35;;
78927;SDS011;68322;22.726;113.540;2023-05-15T04:55:29;40.58;;;25.98;;
78927;SDS011;68322;22.726;113.540;2023-05-15T04:57:56;31.25;;;19.25;;
78927;SDS011;68322;22.726;113.540;2023-05-15T05:00:23;38.13;;;24.35;;
78927;SDS011;68322;22.726;113.540;2023-05-15T05:02:50;27.55;;;18.30;;
78927;SDS011;68322;22.726;113.540;2023-05-15T05:05:17;34.40;;;21.30;;
78927;SDS011;68322;22.726;113.540;2023-05-15T05:07:44;24.35;;;15.57;;
78927;SDS011;68322;22.726;113.540;2023-05-15T05:10:11;27.95;;;20.00;;
78927;SDS011;68322;22.726;113.540;2023-05-15T05:12:38;40.85;;;23.30;;
78927;SDS011;68322;22.726;113.540;2023-05-15T05:15:07;41.00;;;24.17;;
78927;SDS011;68322;22.726;113.540;2023-05-15T05:17:35;31.67;;;20.30;;
78927;SDS011;68322;22.726;113.540;2023-05-15T05:20:02;36.10;;;18.58;;
78927;SDS011;68322;22.726;113.540;2023-05-15T05:22:29;31.17;;;19.90;;
78927;SDS011;68322;22.726;113.540;2023-05-15T05:24:56;31.13;;;18.73;;
78927;SDS011;68322;22.726;113.540;2023-05-15T05:27:22;33.50;;;19.13;;
78927;SDS011;68322;22.726;113.540;2023-05-15T05:29:49;32.83;;;21.48;;
78927;SDS011;68322;22.726;113.540;2023-05-15T05:32:20;35.28;;;21.92;;
78927;SDS011;68322;22.726;113.540;2023-05-15T05:34:47;35.33;;;22.33;;
78927;SDS011;68322;22.726;113.540;2023-05-15T05:37:14;27.63;;;18.23;;
78927;SDS011;68322;22.726;113.540;2023-05-15T05:39:40;28.55;;;19.25;;
78927;SDS011;68322;22.726;113.540;2023-05-15T05:42:07;39.90;;;24.92;;
78927;SDS011;68322;22.726;113.540;2023-05-15T05:44:34;36.67;;;24.13;;
78927;SDS011;68322;22.726;113.540;2023-05-15T05:47:03;37.05;;;22.67;;
78927;SDS011;68322;22.726;113.540;2023-05-15T05:49:30;29.02;;;18.85;;
78927;SDS011;68322;22.726;113.540;2023-05-15T05:52:03;31.15;;;19.17;;
78927;SDS011;68322;22.726;113.540;2023-05-15T05:54:30;32.25;;;20.60;;
78927;SDS011;68322;22.726;113.540;2023-05-15T05:56:57;34.15;;;21.33;;
78927;SDS011;68322;22.726;113.540;2023-05-15T05:59:24;34.58;;;21.50;;
78927;SDS011;68322;22.726;113.540;2023-05-15T06:01:51;30.52;;;19.65;;
78927;SDS011;68322;22.726;113.540;2023-05-15T06:04:18;29.02;;;19.27;;
78927;SDS011;68322;22.726;113.540;2023-05-15T06:06:45;29.50;;;19.02;;
78927;SDS011;68322;22.726;113.540;2023-05-15T06:09:12;33.55;;;21.42;;
78927;SDS011;68322;22.726;113.540;2023-05-15T06:11:39;28.02;;;18.52;;
78927;SDS011;68322;22.726;113.540;2023-05-15T06:14:05;32.80;;;19.60;;
78927;SDS011;68322;22.726;113.540;2023-05-15T06:16:32;32.50;;;19.60;;
78927;SDS011;68322;22.726;113.540;2023-05-15T06:18:59;28.40;;;20.10;;
78927;SDS011;68322;22.726;113.540;2023-05-15T06:21:26;33.55;;;21.85;;
78927;SDS011;68322;22.726;113.540;2023-05-15T06:23:54;33.42;;;22.60;;
78927;SDS011;68322;22.726;113.540;2023-05-15T06:26:23;35.40;;;21.52;;
78927;SDS011;68322;22.726;113.540;2023-05-15T06:28:50;33.20;;;22.23;;
78927;SDS011;68322;22.726;113.540;2023-05-15T06:31:16;33.30;;;21.83;;
78927;SDS011;68322;22.726;113.540;2023-05-15T06:33:43;36.47;;;24.05;;
78927;SDS011;68322;22.726;113.540;2023-05-15T06:36:10;50.63;;;27.77;;
78927;SDS011;68322;22.726;113.540;2023-05-15T06:38:36;36.17;;;24.25;;
78927;SDS011;68322;22.726;113.540;2023-05-15T06:41:03;43.05;;;25.85;;
78927;SDS011;68322;22.726;113.540;2023-05-15T06:43:30;43.97;;;28.33;;
78927;SDS011;68322;22.726;113.540;2023-05-15T06:45:57;41.72;;;25.73;;
78927;SDS011;68322;22.726;113.540;2023-05-15T06:48:24;43.20;;;26.85;;
78927;SDS011;68322;22.726;113.540;2023-05-15T06:50:50;40.25;;;25.40;;
78927;SDS011;68322;22.726;113.540;2023-05-15T06:53:17;43.30;;;25.13;;
78927;SDS011;68322;22.726;113.540;2023-05-15T06:55:45;44.47;;;26.52;;
78927;SDS011;68322;22.726;113.540;2023-05-15T06:58:12;42.88;;;26.08;;
78927;SDS011;68322;22.726;113.540;2023-05-15T07:00:39;45.22;;;27.55;;
78927;SDS011;68322;22.726;113.540;2023-05-15T07:03:05;40.75;;;26.33;;
78927;SDS011;68322;22.726;113.540;2023-05-15T07:05:32;40.78;;;25.08;;
78927;SDS011;68322;22.726;113.540;2023-05-15T07:07:59;44.70;;;28.02;;
78927;SDS011;68322;22.726;113.540;2023-05-15T07:10:25;43.63;;;28.55;;
78927;SDS011;68322;22.726;113.540;2023-05-15T07:12:52;52.92;;;30.20;;
78927;SDS011;68322;22.726;113.540;2023-05-15T07:15:19;49.00;;;32.70;;
78927;SDS011;68322;22.726;113.540;2023-05-15T07:17:46;54.83;;;34.00;;
78927;SDS011;68322;22.726;113.540;2023-05-15T07:20:13;52.33;;;34.10;;
78927;SDS011;68322;22.726;113.540;2023-05-15T07:22:40;52.10;;;33.20;;
78927;SDS011;68322;22.726;113.540;2023-05-15T07:25:07;48.83;;;32.38;;
78927;SDS011;68322;22.726;113.540;2023-05-15T07:27:34;51.33;;;30.27;;
78927;SDS011;68322;22.726;113.540;2023-05-15T07:30:03;52.13;;;28.63;;
78927;SDS011;68322;22.726;113.540;2023-05-15T07:32:30;53.90;;;31.02;;
78927;SDS011;68322;22.726;113.540;2023-05-15T07:34:58;43.60;;;29.00;;
78927;SDS011;68322;22.726;113.540;2023-05-15T07:37:25;48.95;;;29.88;;
78927;SDS011;68322;22.726;113.540;2023-05-15T07:39:51;42.75;;;28.35;;
78927;SDS011;68322;22.726;113.540;2023-05-15T07:42:18;43.22;;;27.30;;
78927;SDS011;68322;22.726;113.540;2023-05-15T07:44:46;42.78;;;26.85;;
78927;SDS011;68322;22.726;113.540;2023-05-15T07:47:13;46.78;;;28.65;;
78927;SDS011;68322;22.726;113.540;2023-05-15T07:49:40;40.58;;;26.98;;
78927;SDS011;68322;22.726;113.540;2023-05-15T07:52:06;45.65;;;27.65;;
78927;SDS011;68322;22.726;113.540;2023-05-15T07:54:33;40.67;;;24.58;;
78927;SDS011;68322;22.726;113.540;2023-05-15T07:57:00;42.67;;;25.38;;
78927;SDS011;68322;22.726;113.540;2023-05-15T07:59:26;37.72;;;25.45;;
78927;SDS011;68322;22.726;113.540;2023-05-15T08:01:55;37.35;;;21.73;;
78927;SDS011;68322;22.726;113.540;2023-05-15T08:04:21;44.13;;;23.85;;
78927;SDS011;68322;22.726;113.540;2023-05-15T08:06:48;40.30;;;26.38;;
78927;SDS011;68322;22.726;113.540;2023-05-15T08:09:18;38.92;;;24.83;;
78927;SDS011;68322;22.726;113.540;2023-05-15T08:11:45;38.20;;;25.38;;
78927;SDS011;68322;22.726;113.540;2023-05-15T08:14:12;39.42;;;26.08;;
78927;SDS011;68322;22.726;113.540;2023-05-15T08:16:39;36.58;;;25.85;;
78927;SDS011;68322;22.726;113.540;2023-05-15T08:19:05;38.65;;;24.67;;
78927;SDS011;68322;22.726;113.540;2023-05-15T08:21:34;37.75;;;23.70;;
78927;SDS011;68322;22.726;113.540;2023-05-15T08:24:01;35.28;;;23.10;;
78927;SDS011;68322;22.726;113.540;2023-05-15T08:26:27;33.30;;;24.10;;
78927;SDS011;68322;22.726;113.540;2023-05-15T08:28:54;36.00;;;22.90;;
78927;SDS011;68322;22.726;113.540;2023-05-15T08:31:21;36.85;;;23.83;;
78927;SDS011;68322;22.726;113.540;2023-05-15T08:33:48;38.65;;;24.83;;
78927;SDS011;68322;22.726;113.540;2023-05-15T08:36:14;37.08;;;23.83;;
78927;SDS011;68322;22.726;113.540;2023-05-15T08:38:43;43.88;;;26.02;;
78927;SDS011;68322;22.726;113.540;2023-05-15T08:41:12;40.75;;;26.35;;
78927;SDS011;68322;22.726;113.540;2023-05-15T08:43:40;43.65;;;25.70;;
78927;SDS011;68322;22.726;113.540;2023-05-15T08:46:08;37.80;;;26.63;;
78927;SDS011;68322;22.726;113.540;2023-05-15T08:48:36;41.55;;;26.08;;
78927;SDS011;68322;22.726;113.540;2023-05-15T08:51:07;42.90;;;25.88;;
78927;SDS011;68322;22.726;113.540;2023-05-15T08:53:35;41.08;;;25.55;;
78927;SDS011;68322;22.726;113.540;2023-05-15T08:56:02;42.13;;;27.17;;
78927;SDS011;68322;22.726;113.540;2023-05-15T08:58:29;37.53;;;24.42;;
78927;SDS011;68322;22.726;113.540;2023-05-15T09:00:56;41.63;;;24.98;;
78927;SDS011;68322;22.726;113.540;2023-05-15T09:03:24;40.63;;;25.33;;
78927;SDS011;68322;22.726;113.540;2023-05-15T09:05:51;35.30;;;25.33;;
78927;SDS011;68322;22.726;113.540;2023-05-15T09:08:19;38.13;;;24.33;;
78927;SDS011;68322;22.726;113.540;2023-05-15T09:10:48;41.63;;;25.58;;
78927;SDS011;68322;22.726;113.540;2023-05-15T09:13:15;39.28;;;23.33;;
78927;SDS011;68322;22.726;113.540;2023-05-15T09:15:42;42.88;;;26.63;;
78927;SDS011;68322;22.726;113.540;2023-05-15T09:18:13;54.00;;;27.85;;
78927;SDS011;68322;22.726;113.540;2023-05-15T09:20:41;47.17;;;28.25;;
78927;SDS011;68322;22.726;113.540;2023-05-15T09:23:20;45.92;;;28.10;;
78927;SDS011;68322;22.726;113.540;2023-05-15T09:25:47;43.08;;;30.65;;
78927;SDS011;68322;22.726;113.540;2023-05-15T09:28:27;43.63;;;28.10;;
78927;SDS011;68322;22.726;113.540;2023-05-15T09:30:58;48.25;;;31.30;;
78927;SDS011;68322;22.726;113.540;2023-05-15T09:35:58;51.28;;;30.00;;
78927;SDS011;68322;22.726;113.540;2023-05-15T09:38:26;48.05;;;32.72;;
78927;SDS011;68322;22.726;113.540;2023-05-15T09:41:05;50.22;;;30.70;;
78927;SDS011;68322;22.726;113.540;2023-05-15T09:43:39;48.25;;;32.33;;
78927;SDS011;68322;22.726;113.540;2023-05-15T09:46:08;55.10;;;34.53;;
78927;SDS011;68322;22.726;113.540;2023-05-15T09:48:37;49.42;;;33.22;;
78927;SDS011;68322;22.726;113.540;2023-05-15T09:51:04;52.13;;;31.55;;
78927;SDS011;68322;22.726;113.540;2023-05-15T09:53:31;53.28;;;34.50;;
78927;SDS011;68322;22.726;113.540;2023-05-15T09:55:58;52.95;;;31.25;;
78927;SDS011;68322;22.726;113.540;2023-05-15T09:58:25;56.42;;;33.90;;
78927;SDS011;68322;22.726;113.540;2023-05-15T10:00:52;62.35;;;33.90;;
78927;SDS011;68322;22.726;113.540;2023-05-15T10:03:19;60.03;;;34.95;;
78927;SDS011;68322;22.726;113.540;2023-05-15T10:05:46;56.38;;;36.00;;
78927;SDS011;68322;22.726;113.540;2023-05-15T10:08:13;64.45;;;36.65;;
78927;SDS011;68322;22.726;113.540;2023-05-15T10:10:40;61.90;;;34.75;;
78927;SDS011;68322;22.726;113.540;2023-05-15T10:13:07;61.90;;;34.70;;
78927;SDS011;68322;22.726;113.540;2023-05-15T10:15:35;58.13;;;33.45;;
78927;SDS011;68322;22.726;113.540;2023-05-15T10:18:03;67.30;;;34.25;;
78927;SDS011;68322;22.726;113.540;2023-05-15T10:20:29;55.22;;;36.10;;
78927;SDS011;68322;22.726;113.540;2023-05-15T10:22:56;55.38;;;35.83;;
78927;SDS011;68322;22.726;113.540;2023-05-15T10:25:31;58.72;;;34.53;;
78927;SDS011;68322;22.726;113.540;2023-05-15T10:27:58;50.88;;;33.35;;
78927;SDS011;68322;22.726;113.540;2023-05-15T10:30:26;59.40;;;34.78;;
78927;SDS011;68322;22.726;113.540;2023-05-15T10:32:53;59.35;;;35.70;;
78927;SDS011;68322;22.726;113.540;2023-05-15T10:37:48;56.00;;;34.67;;
78927;SDS011;68322;22.726;113.540;2023-05-15T10:40:15;54.42;;;33.95;;
78927;SDS011;68322;22.726;113.540;2023-05-15T10:42:44;55.53;;;33.90;;
78927;SDS011;68322;22.726;113.540;2023-05-15T10:45:12;58.90;;;33.25;;
78927;SDS011;68322;22.726;113.540;2023-05-15T10:47:39;55.28;;;33.55;;
78927;SDS011;68322;22.726;113.540;2023-05-15T10:50:06;57.13;;;36.47;;
78927;SDS011;68322;22.726;113.540;2023-05-15T10:52:37;56.17;;;34.05;;
78927;SDS011;68322;22.726;113.540;2023-05-15T10:55:13;65.57;;;34.67;;
78927;SDS011;68322;22.726;113.540;2023-05-15T10:57:43;59.72;;;34.97;;
78927;SDS011;68322;22.726;113.540;2023-05-15T11:00:29;56.67;;;34.22;;
78927;SDS011;68322;22.726;113.540;2023-05-15T11:02:55;63.70;;;37.92;;
78927;SDS011;68322;22.726;113.540;2023-05-15T11:05:23;52.97;;;31.95;;
78927;SDS011;68322;22.726;113.540;2023-05-15T11:08:23;51.70;;;27.67;;
78927;SDS011;68322;22.726;113.540;2023-05-15T11:10:45;43.85;;;24.92;;
78927;SDS011;68322;22.726;113.540;2023-05-15T11:13:12;41.78;;;24.40;;
78927;SDS011;68322;22.726;113.540;2023-05-15T11:15:43;39.28;;;21.67;;
78927;SDS011;68322;22.726;113.540;2023-05-15T11:18:10;38.78;;;20.23;;
78927;SDS011;68322;22.726;113.540;2023-05-15T11:20:38;34.55;;;20.10;;
78927;SDS011;68322;22.726;113.540;2023-05-15T11:23:05;33.00;;;18.08;;
78927;SDS011;68322;22.726;113.540;2023-05-15T11:25:33;37.22;;;21.85;;
78927;SDS011;68322;22.726;113.540;2023-05-15T11:28:01;32.78;;;20.45;;
78927;SDS011;68322;22.726;113.540;2023-05-15T11:37:56;36.83;;;22.73;;
78927;SDS011;68322;22.726;113.540;2023-05-15T11:40:24;34.65;;;20.35;;
78927;SDS011;68322;22.726;113.540;2023-05-15T11:43:01;41.42;;;22.10;;
78927;SDS011;68322;22.726;113.540;2023-05-15T11:45:35;33.83;;;21.15;;
78927;SDS011;68322;22.726;113.540;2023-05-15T11:48:04;34.42;;;21.98;;
78927;SDS011;68322;22.726;113.540;2023-05-15T11:50:31;35.13;;;22.27;;
78927;SDS011;68322;22.726;113.540;2023-05-15T11:53:02;42.97;;;23.00;;
78927;SDS011;68322;22.726;113.540;2023-05-15T11:55:29;40.13;;;23.42;;
78927;SDS011;68322;22.726;113.540;2023-05-15T11:57:56;45.85;;;25.35;;
78927;SDS011;68322;22.726;113.540;2023-05-15T12:00:23;43.38;;;27.90;;
78927;SDS011;68322;22.726;113.540;2023-05-15T12:02:50;49.92;;;26.23;;
78927;SDS011;68322;22.726;113.540;2023-05-15T12:05:16;41.53;;;25.60;;
78927;SDS011;68322;22.726;113.540;2023-05-15T12:07:43;39.35;;;24.60;;
78927;SDS011;68322;22.726;113.540;2023-05-15T12:10:11;38.55;;;25.15;;
78927;SDS011;68322;22.726;113.540;2023-05-15T12:12:42;39.53;;;25.83;;
78927;SDS011;68322;22.726;113.540;2023-05-15T12:15:13;41.00;;;24.20;;
78927;SDS011;68322;22.726;113.540;2023-05-15T12:17:41;45.00;;;25.17;;
78927;SDS011;68322;22.726;113.540;2023-05-15T12:20:09;41.40;;;25.35;;
78927;SDS011;68322;22.726;113.540;2023-05-15T12:22:40;45.88;;;27.45;;
78927;SDS011;68322;22.726;113.540;2023-05-15T12:25:07;48.33;;;28.90;;
78927;SDS011;68322;22.726;113.540;2023-05-15T12:27:35;45.38;;;26.08;;
78927;SDS011;68322;22.726;113.540;2023-05-15T12:30:04;42.17;;;25.67;;
78927;SDS011;68322;22.726;113.540;2023-05-15T12:32:32;45.45;;;26.35;;
78927;SDS011;68322;22.726;113.540;2023-05-15T12:35:01;62.20;;;28.67;;
78927;SDS011;68322;22.726;113.540;2023-05-15T12:37:29;47.03;;;25.20;;
78927;SDS011;68322;22.726;113.540;2023-05-15T12:40:00;52.15;;;28.20;;
78927;SDS011;68322;22.726;113.540;2023-05-15T12:42:29;46.50;;;27.15;;
78927;SDS011;68322;22.726;113.540;2023-05-15T12:44:55;46.40;;;28.00;;
78927;SDS011;68322;22.726;113.540;2023-05-15T12:47:23;48.22;;;27.90;;
78927;SDS011;68322;22.726;113.540;2023-05-15T12:49:54;52.15;;;27.08;;
78927;SDS011;68322;22.726;113.540;2023-05-15T12:52:21;54.05;;;26.50;;
78927;SDS011;68322;22.726;113.540;2023-05-15T12:54:49;44.55;;;26.33;;
78927;SDS011;68322;22.726;113.540;2023-05-15T12:57:16;52.70;;;30.80;;
78927;SDS011;68322;22.726;113.540;2023-05-15T12:59:43;53.22;;;30.00;;
78927;SDS011;68322;22.726;113.540;2023-05-15T13:02:11;51.53;;;30.77;;
78927;SDS011;68322;22.726;113.540;2023-05-15T13:04:38;55.60;;;29.88;;
78927;SDS011;68322;22.726;113.540;2023-05-15T13:07:06;53.15;;;28.80;;
78927;SDS011;68322;22.726;113.540;2023-05-15T13:09:34;50.17;;;29.42;;
78927;SDS011;68322;22.726;113.540;2023-05-15T13:12:01;52.28;;;30.17;;
78927;SDS011;68322;22.726;113.540;2023-05-15T13:14:31;57.55;;;30.25;;
78927;SDS011;68322;22.726;113.540;2023-05-15T13:16:58;58.67;;;30.55;;
78927;SDS011;68322;22.726;113.540;2023-05-15T13:19:27;54.95;;;26.85;;
78927;SDS011;68322;22.726;113.540;2023-05-15T13:21:54;57.42;;;29.90;;
78927;SDS011;68322;22.726;113.540;2023-05-15T13:24:20;53.38;;;30.20;;
78927;SDS011;68322;22.726;113.540;2023-05-15T13:26:49;59.65;;;33.30;;
78927;SDS011;68322;22.726;113.540;2023-05-15T13:29:17;53.90;;;30.42;;
78927;SDS011;68322;22.726;113.540;2023-05-15T13:31:43;56.60;;;31.80;;
78927;SDS011;68322;22.726;113.540;2023-05-15T13:34:10;63.20;;;31.25;;
78927;SDS011;68322;22.726;113.540;2023-05-15T13:36:48;63.95;;;31.90;;
78927;SDS011;68322;22.726;113.540;2023-05-15T13:39:14;60.78;;;32.67;;
78927;SDS011;68322;22.726;113.540;2023-05-15T13:41:41;66.38;;;32.67;;
78927;SDS011;68322;22.726;113.540;2023-05-15T13:44:10;64.45;;;33.85;;
78927;SDS011;68322;22.726;113.540;2023-05-15T13:46:39;63.83;;;31.35;;
78927;SDS011;68322;22.726;113.540;2023-05-15T13:49:09;67.00;;;34.80;;
78927;SDS011;68322;22.726;113.540;2023-05-15T13:51:37;64.85;;;33.53;;
78927;SDS011;68322;22.726;113.540;2023-05-15T13:56:30;67.03;;;34.10;;
78927;SDS011;68322;22.726;113.540;2023-05-15T13:58:57;75.57;;;37.80;;
78927;SDS011;68322;22.726;113.540;2023-05-15T14:01:24;70.78;;;37.30;;
78927;SDS011;68322;22.726;113.540;2023-05-15T14:03:50;69.90;;;37.25;;
78927;SDS011;68322;22.726;113.540;2023-05-15T14:06:18;71.65;;;36.53;;
78927;SDS011;68322;22.726;113.540;2023-05-15T14:08:45;74.97;;;36.92;;
78927;SDS011;68322;22.726;113.540;2023-05-15T14:11:15;73.35;;;37.05;;
78927;SDS011;68322;22.726;113.540;2023-05-15T14:13:42;74.25;;;37.60;;
78927;SDS011;68322;22.726;113.540;2023-05-15T14:16:08;68.28;;;35.20;;
78927;SDS011;68322;22.726;113.540;2023-05-15T14:18:35;79.85;;;38.28;;
78927;SDS011;68322;22.726;113.540;2023-05-15T14:21:02;66.07;;;31.85;;
78927;SDS011;68322;22.726;113.540;2023-05-15T14:23:30;76.65;;;38.50;;
78927;SDS011;68322;22.726;113.540;2023-05-15T14:25:58;71.10;;;35.17;;
78927;SDS011;68322;22.726;113.540;2023-05-15T14:28:26;77.38;;;34.25;;
78927;SDS011;68322;22.726;113.540;2023-05-15T14:30:53;74.20;;;36.00;;
78927;SDS011;68322;22.726;113.540;2023-05-15T14:33:25;75.45;;;36.47;;